Time;durP1;ratioP1;P1;durP2;ratioP2;P2;SDS_P1;SDS_P2;PMS_P1;PMS_P2;Temp;Humidity;BMP_temperature;BMP_pressure;BME280_temperature;BME280_humidity;BME280_pressure;Samples;Min_cycle;Max_cycle;Signal;HPM_P1;HPM_P2
2023/09/11 05:10:45;;;;;;;;;;;;;;;24.58;55.32;96893.22;4263294;27;10185;-64
2023/09/11 05:12:48;;;;;;;;;;;;;;;24.83;54.52;96890.34;4268205;27;5594;-63
2023/09/11 05:14:51;;;;;;;;;;;;;;;25.06;54.10;96893.44;4261604;27;5645;-63
2023/09/11 05:16:53;;;;;;;;;;;;;;;25.21;53.68;96901.41;4264951;27;5617;-64
2023/09/11 05:18:56;;;;;;;;;;;;;;;25.32;53.51;96907.56;4253156;27;5827;-63
2023/09/11 05:20:59;;;;;;;;;;;;;;;25.40;53.46;96902.34;4257856;27;5922;-63
2023/09/11 05:23:02;;;;;;;;;;;;;;;25.50;53.13;96896.84;4257783;27;5727;-63
2023/09/11 05:25:06;;;;;;;;;;;;;;;25.59;52.91;96902.41;4253901;27;5719;-63
2023/09/11 05:27:10;;;;;;;;;;;;;;;25.64;52.64;96901.56;4257361;27;5752;-63
2023/09/11 05:29:13;;;;;;;;;;;;;;;25.68;52.80;96905.28;4262480;27;6313;-63
2023/09/11 05:31:16;;;;;;;;;;;;;;;25.70;52.96;96914.78;4255839;27;5624;-64
2023/09/11 05:33:19;;;;;;;;;;;;;;;25.72;52.74;96909.09;4253557;27;6325;-63
2023/09/11 05:35:22;;;;;;;;;;;;;;;25.71;52.52;96900.16;4258526;27;5620;-63
2023/09/11 05:37:25;;;;;;;;;;;;;;;25.73;52.75;96897.16;4256829;27;5612;-63
2023/09/11 05:39:27;;;;;;;;;;;;;;;25.75;53.05;96903.09;4250130;27;5641;-63
2023/09/11 05:41:30;;;;;;;;;;;;;;;25.74;52.96;96907.72;4257710;27;5668;-64
2023/09/11 05:43:33;;;;;;;;;;;;;;;25.75;52.95;96916.63;4248932;27;5823;-63
2023/09/11 05:45:36;;;;;;;;;;;;;;;25.76;53.13;96910.94;4252351;27;5720;-63
2023/09/11 05:47:40;;;;;;;;;;;;;;;25.81;52.96;96910.06;4264294;27;5734;-62
2023/09/11 05:49:42;;;;;;;;;;;;;;;25.83;52.92;96907.88;4254209;27;5845;-63
2023/09/11 05:51:45;;;;;;;;;;;;;;;25.85;53.27;96916.53;4264182;27;5728;-63
2023/09/11 05:53:48;;;;;;;;;;;;;;;25.90;53.20;96919.16;4254687;27;5786;-63
2023/09/11 05:55:51;;;;;;;;;;;;;;;25.93;53.24;96918.56;4252012;27;5833;-63
2023/09/11 05:57:54;;;;;;;;;;;;;;;25.96;53.16;96919.94;4252935;27;5714;-63
2023/09/11 05:59:58;;;;;;;;;;;;;;;25.95;53.01;96916.41;4258482;27;7397;-64
2023/09/11 06:02:01;;;;;;;;;;;;;;;25.98;53.18;96909.59;4258096;27;5787;-64
2023/09/11 06:04:04;;;;;;;;;;;;;;;25.99;52.98;96928.28;4257955;27;5903;-64
2023/09/11 06:06:08;;;;;;;;;;;;;;;26.00;53.00;96924.47;4270926;27;7668;-64
2023/09/11 06:08:11;;;;;;;;;;;;;;;26.02;53.08;96924.97;4267536;27;5830;-63
2023/09/11 06:10:15;;;;;;;;;;;;;;;26.02;53.01;96924.19;4274307;27;5822;-63
2023/09/11 06:12:18;;;;;;;;;;;;;;;26.05;53.10;96927.13;4251067;27;5128;-63
2023/09/11 06:14:21;;;;;;;;;;;;;;;26.07;53.02;96924.94;4256791;27;6813;-63
2023/09/11 06:16:25;;;;;;;;;;;;;;;26.08;53.19;96921.13;4259334;27;5773;-64
2023/09/11 06:18:28;;;;;;;;;;;;;;;26.09;53.15;96928.16;4236464;27;5652;-64
2023/09/11 06:20:31;;;;;;;;;;;;;;;26.11;53.29;96919.75;4254152;27;5699;-64
2023/09/11 06:22:34;;;;;;;;;;;;;;;26.10;52.87;96918.13;4253547;27;5591;-64
2023/09/11 06:24:36;;;;;;;;;;;;;;;26.10;53.30;96913.50;4253137;27;5628;-62
2023/09/11 06:26:43;;;;;;;;;;;;;;;26.13;53.23;96918.34;4260595;27;5684;-62
2023/09/11 06:28:46;;;;;;;;;;;;;;;26.14;52.76;96924.56;4244784;27;5703;-62
2023/09/11 06:30:48;;;;;;;;;;;;;;;26.15;53.18;96930.78;4251982;27;5828;-62
2023/09/11 06:32:53;;;;;;;;;;;;;;;26.16;52.77;96926.97;4261600;27;5599;-63
2023/09/11 06:34:55;;;;;;;;;;;;;;;26.17;53.04;96929.44;4261460;27;5610;-63
2023/09/11 06:36:58;;;;;;;;;;;;;;;26.19;53.09;96937.25;4254704;27;5660;-64
2023/09/11 06:39:01;;;;;;;;;;;;;;;26.18;53.09;96931.03;4250757;27;5828;-64
2023/09/11 06:41:04;;;;;;;;;;;;;;;26.17;52.97;96928.63;4260947;27;5620;-64
2023/09/11 06:43:06;;;;;;;;;;;;;;;26.17;53.07;96928.63;4252804;27;5716;-64
2023/09/11 06:45:10;;;;;;;;;;;;;;;26.19;53.19;96926.44;4252497;27;5810;-65
2023/09/11 06:47:13;;;;;;;;;;;;;;;26.20;52.96;96928.03;4252068;27;5621;-64
2023/09/11 06:49:17;;;;;;;;;;;;;;;26.16;53.13;96926.97;4249341;27;5634;-64
2023/09/11 06:51:20;;;;;;;;;;;;;;;26.17;53.12;96918.59;4264221;27;7050;-64
2023/09/11 06:53:23;;;;;;;;;;;;;;;26.19;53.27;96921.81;4252775;27;5741;-64
2023/09/11 06:55:26;;;;;;;;;;;;;;;26.21;53.36;96918.81;4261381;27;5074;-64
2023/09/11 06:57:28;;;;;;;;;;;;;;;26.22;53.14;96923.94;4260283;27;5662;-64
2023/09/11 06:59:32;;;;;;;;;;;;;;;26.22;53.23;96920.41;4251135;27;5714;-64
2023/09/11 07:01:38;;;;;;;;;;;;;;;26.21;53.29;96918.81;4245294;27;5772;-68
2023/09/11 07:03:41;;;;;;;;;;;;;;;26.20;53.50;96912.59;4246507;27;5628;-65
2023/09/11 07:05:51;;;;;;;;;;;;;;;26.22;53.51;96915.81;4243218;27;5840;-69
2023/09/11 07:07:54;;;;;;;;;;;;;;;26.25;53.58;96920.63;4238533;27;5665;-68
2023/09/11 07:09:57;;;;;;;;;;;;;;;26.27;53.63;96926.56;4251667;27;5901;-69
2023/09/11 07:11:59;;;;;;;;;;;;;;;26.29;53.43;96920.88;4251881;27;5616;-65
2023/09/11 07:14:05;;;;;;;;;;;;;;;26.31;53.49;96924.09;4251075;27;5668;-66
2023/09/11 07:16:08;;;;;;;;;;;;;;;26.33;53.45;96916.47;4245946;27;5746;-65
2023/09/11 07:18:11;;;;;;;;;;;;;;;26.34;53.40;96913.47;4249108;27;5688;-68
2023/09/11 07:20:14;;;;;;;;;;;;;;;26.33;53.62;96911.88;4241069;27;5720;-68
2023/09/11 07:22:18;;;;;;;;;;;;;;;26.34;53.59;96912.69;4244374;27;5738;-68
2023/09/11 07:24:21;;;;;;;;;;;;;;;26.34;53.74;96915.38;4252445;27;5691;-68
2023/09/11 07:26:24;;;;;;;;;;;;;;;26.34;53.58;96910.78;4250828;27;5628;-68
2023/09/11 07:28:27;;;;;;;;;;;;;;;26.35;53.75;96914.28;4249872;27;5102;-68
2023/09/11 07:30:30;;;;;;;;;;;;;;;26.36;53.67;96922.16;4262665;27;5606;-68
2023/09/11 07:32:33;;;;;;;;;;;;;;;26.38;53.93;96919.16;4253215;27;5649;-68
2023/09/11 07:34:36;;;;;;;;;;;;;;;26.38;53.97;96919.16;4256358;27;5747;-68
2023/09/11 07:36:39;;;;;;;;;;;;;;;26.39;53.86;96918.88;4257837;27;5686;-68
2023/09/11 07:38:44;;;;;;;;;;;;;;;26.39;54.04;96918.88;4250555;27;5618;-68
2023/09/11 07:40:47;;;;;;;;;;;;;;;26.41;53.99;96924.00;4251896;27;5708;-68
2023/09/11 07:42:52;;;;;;;;;;;;;;;26.41;53.83;96921.28;4252032;27;5624;-68
2023/09/11 07:44:56;;;;;;;;;;;;;;;26.42;54.04;96920.19;4252182;27;5609;-68
2023/09/11 07:46:59;;;;;;;;;;;;;;;26.43;54.02;96916.38;4250140;27;5629;-68
2023/09/11 07:49:02;;;;;;;;;;;;;;;26.44;53.83;96923.41;4247214;27;5900;-68
2023/09/11 07:51:04;;;;;;;;;;;;;;;26.46;53.99;96913.09;4251439;27;5074;-69
2023/09/11 07:53:07;;;;;;;;;;;;;;;26.46;53.82;96923.91;4251457;27;5719;-68
2023/09/11 07:55:11;;;;;;;;;;;;;;;26.47;53.98;96922.00;4248301;27;5767;-68
2023/09/11 07:57:14;;;;;;;;;;;;;;;26.46;54.13;96913.09;4250020;27;5722;-68
2023/09/11 07:59:17;;;;;;;;;;;;;;;26.47;53.92;96917.41;4251472;27;5620;-66
2023/09/11 08:01:21;;;;;;;;;;;;;;;26.47;53.96;96914.69;4250945;27;5644;-66
2023/09/11 08:03:24;;;;;;;;;;;;;;;26.50;54.17;96918.72;4251900;27;5632;-66
2023/09/11 08:05:27;;;;;;;;;;;;;;;26.50;54.08;96916.00;4263078;27;6292;-67
2023/09/11 08:07:30;;;;;;;;;;;;;;;26.53;54.12;96926.28;4247588;27;5685;-66
2023/09/11 08:09:34;;;;;;;;;;;;;;;26.54;53.98;96923.28;4264890;27;5619;-67
2023/09/11 08:11:39;;;;;;;;;;;;;;;26.53;54.03;96927.09;4235028;27;5666;-67
2023/09/11 08:13:43;;;;;;;;;;;;;;;26.55;54.01;96930.31;4243790;27;5661;-67
2023/09/11 08:15:46;;;;;;;;;;;;;;;26.57;54.12;96930.00;4250196;27;5651;-67
2023/09/11 08:17:48;;;;;;;;;;;;;;;26.56;54.18;96925.69;4250540;27;5798;-68
2023/09/11 08:19:51;;;;;;;;;;;;;;;26.58;54.21;96926.19;4251334;27;5742;-67
2023/09/11 08:21:54;;;;;;;;;;;;;;;26.59;54.35;96928.63;4250873;27;8406;-67
2023/09/11 08:23:57;;;;;;;;;;;;;;;26.58;54.37;96924.28;4256586;27;5814;-67
2023/09/11 08:26:02;;;;;;;;;;;;;;;26.60;54.27;96924.81;4249609;27;5707;-68
2023/09/11 08:28:07;;;;;;;;;;;;;;;26.63;54.28;96926.16;4251131;27;5639;-68
2023/09/11 08:30:11;;;;;;;;;;;;;;;26.65;54.33;96932.06;4242749;27;5648;-68
2023/09/11 08:32:14;;;;;;;;;;;;;;;26.64;54.04;96928.56;4250725;27;5722;-68
2023/09/11 08:34:17;;;;;;;;;;;;;;;26.66;54.10;96923.66;4243848;27;5649;-68
2023/09/11 08:36:20;;;;;;;;;;;;;;;26.68;54.07;96928.78;4240191;27;5864;-68
2023/09/11 08:38:23;;;;;;;;;;;;;;;26.68;54.01;96924.16;4251164;27;6542;-68
2023/09/11 08:40:30;;;;;;;;;;;;;;;26.69;53.98;96928.47;4251360;27;5619;-71
2023/09/11 08:42:33;;;;;;;;;;;;;;;26.70;53.96;96930.09;4251498;27;5665;-66
2023/09/11 08:44:38;;;;;;;;;;;;;;;26.70;53.92;96938.22;4242663;27;5649;-66
2023/09/11 08:46:45;;;;;;;;;;;;;;;26.71;53.83;96928.19;4248616;27;5086;-66
2023/09/11 08:48:54;;;;;;;;;;;;;;;26.72;53.92;96934.41;4240559;27;5637;-65
2023/09/11 08:51:02;;;;;;;;;;;;;;;26.72;54.06;96928.97;4259499;27;5607;-65
2023/09/11 08:53:05;;;;;;;;;;;;;;;26.73;53.98;96926.00;4251006;27;5620;-65
2023/09/11 08:55:10;;;;;;;;;;;;;;;26.73;53.66;96930.59;4254495;27;5606;-65
2023/09/11 08:57:13;;;;;;;;;;;;;;;26.72;53.75;96928.97;4268093;27;5762;-66
2023/09/11 08:59:19;;;;;;;;;;;;;;;26.73;53.67;96931.44;4241579;27;5677;-65
2023/09/11 09:01:23;;;;;;;;;;;;;;;26.74;53.76;96924.09;4245200;27;5588;-65
2023/09/11 09:03:29;;;;;;;;;;;;;;;26.75;53.54;96920.28;4251892;27;5856;-66
2023/09/11 09:05:33;;;;;;;;;;;;;;;26.74;53.48;96916.75;4238836;27;5839;-66
2023/09/11 09:07:39;;;;;;;;;;;;;;;26.76;53.31;96919.19;4237003;27;5736;-65
2023/09/11 09:09:43;;;;;;;;;;;;;;;26.76;53.35;96913.75;4242422;27;5616;-67
2023/09/11 09:11:48;;;;;;;;;;;;;;;26.78;53.24;96916.97;4251057;27;5734;-74
2023/09/11 09:13:51;;;;;;;;;;;;;;;26.78;52.97;96917.78;4250076;27;5743;-74
2023/09/11 09:15:54;;;;;;;;;;;;;;;26.78;52.84;96916.97;4251023;27;5839;-74
2023/09/11 09:17:58;;;;;;;;;;;;;;;26.78;53.03;96916.97;4255335;27;5711;-75
2023/09/11 09:20:04;;;;;;;;;;;;;;;26.78;52.96;96914.25;4255432;27;5773;-74
2023/09/11 09:22:13;;;;;;;;;;;;;;;26.78;52.60;96906.13;4249949;27;5617;-74
2023/09/11 09:24:17;;;;;;;;;;;;;;;26.79;52.80;96908.53;4257193;27;5723;-74
2023/09/11 09:26:23;;;;;;;;;;;;;;;26.81;52.64;96911.75;4249396;27;5735;-74
2023/09/11 09:28:29;;;;;;;;;;;;;;;26.79;52.54;96913.97;4256985;27;5628;-74
2023/09/11 09:30:37;;;;;;;;;;;;;;;26.81;52.74;96910.97;4251938;27;5797;-74
2023/09/11 09:32:40;;;;;;;;;;;;;;;26.81;52.52;96905.53;4252348;27;5640;-74
2023/09/11 09:34:51;;;;;;;;;;;;;;;26.80;52.57;96909.34;4251707;27;5620;-74
2023/09/11 09:36:55;;;;;;;;;;;;;;;26.81;52.66;96906.34;4252429;27;5620;-74
2023/09/11 09:38:58;;;;;;;;;;;;;;;26.82;52.40;96904.44;4252310;27;5636;-74
2023/09/11 09:41:10;;;;;;;;;;;;;;;26.84;52.35;96904.94;4252243;27;5737;-74
2023/09/11 09:43:17;;;;;;;;;;;;;;;26.83;52.42;96904.13;4252252;27;5620;-74
2023/09/11 09:45:29;;;;;;;;;;;;;;;26.83;52.33;96900.63;4252099;27;6326;-74
2023/09/11 09:47:32;;;;;;;;;;;;;;;26.84;52.20;96900.34;4255448;27;5723;-74
2023/09/11 09:49:45;;;;;;;;;;;;;;;26.85;52.38;96895.72;4255413;27;5639;-75
2023/09/11 09:51:49;;;;;;;;;;;;;;;26.86;52.21;96898.13;4255748;27;5748;-75
2023/09/11 09:53:55;;;;;;;;;;;;;;;26.86;52.17;96891.91;4255842;27;5806;-74
2023/09/11 09:56:01;;;;;;;;;;;;;;;26.89;52.24;96888.59;4255566;27;5659;-75
2023/09/11 09:58:05;;;;;;;;;;;;;;;26.89;52.24;96888.59;4255192;27;5641;-74
2023/09/11 10:00:10;;;;;;;;;;;;;;;26.90;52.39;96884.78;4254970;27;5800;-73
2023/09/11 10:02:13;;;;;;;;;;;;;;;26.91;52.28;96880.97;4255067;27;6006;-75
2023/09/11 10:04:16;;;;;;;;;;;;;;;26.93;52.35;96887.69;4255366;27;6295;-74
2023/09/11 10:06:21;;;;;;;;;;;;;;;26.95;52.37;96887.41;4255483;27;5750;-75
2023/09/11 10:08:23;;;;;;;;;;;;;;;26.95;52.39;96876.53;4255493;27;5764;-74
2023/09/11 10:10:27;;;;;;;;;;;;;;;26.97;52.36;96877.88;4269471;27;5562;-75
2023/09/11 10:12:31;;;;;;;;;;;;;;;26.99;52.32;96880.31;4266325;27;5597;-74
2023/09/11 10:14:34;;;;;;;;;;;;;;;26.99;52.27;96874.88;4254712;27;5721;-74
2023/09/11 10:16:37;;;;;;;;;;;;;;;27.01;52.21;96880.81;4254625;27;5582;-74
2023/09/11 10:18:45;;;;;;;;;;;;;;;27.03;52.31;96875.91;4255114;27;5626;-74
2023/09/11 10:20:49;;;;;;;;;;;;;;;27.05;52.11;96872.91;4254845;27;5586;-74
2023/09/11 10:22:56;;;;;;;;;;;;;;;27.05;52.05;96875.63;4254601;27;5660;-75
2023/09/11 10:24:59;;;;;;;;;;;;;;;27.06;52.16;96875.31;4254850;27;5574;-74
2023/09/11 10:27:04;;;;;;;;;;;;;;;27.08;51.94;96875.03;4255158;27;5710;-74
2023/09/11 10:29:12;;;;;;;;;;;;;;;27.08;52.08;96862.28;4254332;27;6159;-74
2023/09/11 10:31:20;;;;;;;;;;;;;;;27.10;52.02;96867.41;4254573;27;7048;-74
2023/09/11 10:33:27;;;;;;;;;;;;;;;27.10;51.92;96868.22;4253398;27;5638;-74
2023/09/11 10:35:34;;;;;;;;;;;;;;;27.12;51.90;96867.91;4254162;27;5774;-75
2023/09/11 10:37:39;;;;;;;;;;;;;;;27.11;51.86;96867.09;4254833;27;5662;-75
2023/09/11 10:39:44;;;;;;;;;;;;;;;27.08;51.57;96859.56;4254768;27;6639;-74
2023/09/11 10:41:47;;;;;;;;;;;;;;;27.08;51.59;96851.44;4254022;27;5598;-74
2023/09/11 10:43:50;;;;;;;;;;;;;;;27.08;51.75;96851.44;4253533;27;5602;-74
2023/09/11 10:45:53;;;;;;;;;;;;;;;27.10;51.69;96849.22;4254076;27;5675;-74
2023/09/11 10:47:56;;;;;;;;;;;;;;;27.13;51.57;96848.63;4264709;27;5636;-74
2023/09/11 10:49:59;;;;;;;;;;;;;;;27.16;51.69;96841.78;4271321;27;5567;-74
2023/09/11 10:52:05;;;;;;;;;;;;;;;27.17;51.54;96838.75;4271392;27;5598;-75
2023/09/11 10:54:08;;;;;;;;;;;;;;;27.17;51.46;96833.34;4271808;27;5705;-74
2023/09/11 10:56:12;;;;;;;;;;;;;;;27.17;51.47;96833.34;4271811;27;5590;-75
2023/09/11 10:58:15;;;;;;;;;;;;;;;27.18;51.35;96826.81;4270255;27;5587;-74
2023/09/11 11:00:18;;;;;;;;;;;;;;;27.21;51.37;96817.28;4253998;27;5570;-73
2023/09/11 11:02:22;;;;;;;;;;;;;;;27.23;51.14;96815.06;4254027;27;6244;-75
2023/09/11 11:04:25;;;;;;;;;;;;;;;27.23;51.11;96818.59;4254311;27;5581;-75
2023/09/11 11:06:27;;;;;;;;;;;;;;;27.26;51.10;96807.13;4254042;27;5736;-75
2023/09/11 11:08:32;;;;;;;;;;;;;;;27.28;50.96;96804.91;4235997;28;6027;-75
2023/09/11 11:10:35;;;;;;;;;;;;;;;27.30;51.02;96795.69;4254115;27;5632;-75
2023/09/11 11:12:40;;;;;;;;;;;;;;;27.32;50.80;96797.00;4254014;27;5823;-75
2023/09/11 11:14:43;;;;;;;;;;;;;;;27.34;50.76;96796.69;4253939;27;5648;-74
2023/09/11 11:17:03;;;;;;;;;;;;;;;27.36;50.58;96786.31;4253758;27;5674;-74
2023/09/11 11:19:05;;;;;;;;;;;;;;;27.41;50.59;96791.63;4254237;27;5082;-74
2023/09/11 11:21:10;;;;;;;;;;;;;;;27.41;50.35;96789.75;4254073;27;5640;-74
2023/09/11 11:23:13;;;;;;;;;;;;;;;27.44;50.59;96791.88;4254243;27;5848;-74
2023/09/11 11:25:18;;;;;;;;;;;;;;;27.44;50.27;96777.50;4253843;27;5740;-74
2023/09/11 11:27:21;;;;;;;;;;;;;;;27.45;50.34;96779.09;4253904;27;7604;-75
2023/09/11 11:29:26;;;;;;;;;;;;;;;27.45;49.98;96784.53;4253970;27;5862;-75
2023/09/11 11:31:31;;;;;;;;;;;;;;;27.46;50.02;96781.50;4253598;27;5632;-75
2023/09/11 11:33:37;;;;;;;;;;;;;;;27.48;49.75;96778.47;4252628;27;5628;-75
2023/09/11 11:35:44;;;;;;;;;;;;;;;27.49;49.94;96777.38;4245399;27;5665;-75
2023/09/11 11:37:52;;;;;;;;;;;;;;;27.51;49.87;96772.44;4248445;27;5625;-75
2023/09/11 11:39:55;;;;;;;;;;;;;;;27.53;49.90;96772.97;4253610;27;5692;-75
2023/09/11 11:42:00;;;;;;;;;;;;;;;27.55;49.92;96776.19;4253535;27;7723;-75
2023/09/11 11:44:05;;;;;;;;;;;;;;;27.58;49.97;96767.41;4244360;27;5633;-75
2023/09/11 11:46:09;;;;;;;;;;;;;;;27.58;49.92;96767.41;4243532;27;5900;-75
2023/09/11 11:48:12;;;;;;;;;;;;;;;27.59;49.60;96763.59;4249820;27;5640;-75
2023/09/11 11:50:15;;;;;;;;;;;;;;;27.58;49.61;96767.41;4244365;27;5649;-75
2023/09/11 11:52:22;;;;;;;;;;;;;;;27.59;49.45;96769.03;4235930;27;5653;-75
2023/09/11 11:54:28;;;;;;;;;;;;;;;27.60;49.38;96772.53;4236553;27;5766;-75
2023/09/11 11:56:30;;;;;;;;;;;;;;;27.60;49.50;96770.63;4238240;27;5656;-75
2023/09/11 11:58:33;;;;;;;;;;;;;;;27.62;49.53;96770.31;4251325;27;5640;-75
2023/09/11 12:00:37;;;;;;;;;;;;;;;27.62;49.42;96776.56;4248852;27;5774;-74
2023/09/11 12:02:42;;;;;;;;;;;;;;;27.63;49.51;96770.03;4251872;27;5615;-74
2023/09/11 12:04:45;;;;;;;;;;;;;;;27.65;49.24;96767.06;4249424;27;5688;-74
2023/09/11 12:06:54;;;;;;;;;;;;;;;27.63;49.32;96767.31;4245968;27;5959;-74
2023/09/11 12:08:58;;;;;;;;;;;;;;;27.63;48.91;96766.50;4242037;27;5762;-74
2023/09/11 12:11:01;;;;;;;;;;;;;;;27.63;49.16;96769.22;4250136;27;7771;-75
2023/09/11 12:13:04;;;;;;;;;;;;;;;27.63;49.22;96759.16;4247377;27;5066;-74
2023/09/11 12:15:09;;;;;;;;;;;;;;;27.64;48.87;96770.84;4244363;27;5843;-74
2023/09/11 12:17:12;;;;;;;;;;;;;;;27.65;48.84;96765.16;4244565;27;6455;-74
2023/09/11 12:19:19;;;;;;;;;;;;;;;27.66;48.68;96772.19;4246685;27;5823;-75
2023/09/11 12:21:21;;;;;;;;;;;;;;;27.69;48.66;96771.56;4247623;27;5715;-74
2023/09/11 12:23:24;;;;;;;;;;;;;;;27.72;48.86;96762.00;4249888;27;5623;-75
2023/09/11 12:25:27;;;;;;;;;;;;;;;27.72;48.84;96757.38;4239092;27;5703;-74
2023/09/11 12:27:30;;;;;;;;;;;;;;;27.73;48.43;96753.53;4253498;27;5837;-74
2023/09/11 12:29:34;;;;;;;;;;;;;;;27.74;48.49;96749.72;4242923;27;5847;-74
2023/09/11 12:31:37;;;;;;;;;;;;;;;27.73;48.23;96742.69;4246394;27;5713;-74
2023/09/11 12:33:40;;;;;;;;;;;;;;;27.74;48.19;96744.28;4254479;27;6325;-74
2023/09/11 12:35:44;;;;;;;;;;;;;;;27.75;48.15;96740.50;4247184;27;5628;-74
2023/09/11 12:37:46;;;;;;;;;;;;;;;27.77;47.98;96730.13;4248107;27;5805;-74
2023/09/11 12:39:49;;;;;;;;;;;;;;;27.78;47.99;96723.56;4242187;27;5789;-75
2023/09/11 12:41:52;;;;;;;;;;;;;;;27.79;47.76;96725.19;4249658;27;5850;-74
2023/09/11 12:43:55;;;;;;;;;;;;;;;27.79;47.39;96711.59;4247824;27;5752;-74
2023/09/11 12:46:00;;;;;;;;;;;;;;;27.80;47.41;96709.69;4245027;27;5629;-74
2023/09/11 12:48:04;;;;;;;;;;;;;;;27.82;46.94;96704.75;4250348;27;5883;-74
2023/09/11 12:50:08;;;;;;;;;;;;;;;27.83;46.95;96709.88;4250958;27;5798;-75
2023/09/11 12:52:13;;;;;;;;;;;;;;;27.84;46.93;96700.59;4252335;27;5727;-74
2023/09/11 12:54:16;;;;;;;;;;;;;;;27.87;46.90;96704.66;4259184;27;5763;-74
2023/09/11 12:56:22;;;;;;;;;;;;;;;27.90;46.78;96705.94;4246830;27;5660;-74
2023/09/11 12:58:25;;;;;;;;;;;;;;;27.92;46.62;96706.44;4239150;27;7680;-74
2023/09/11 13:00:29;;;;;;;;;;;;;;;27.93;46.26;96703.41;4243342;27;5694;-74
2023/09/11 13:02:32;;;;;;;;;;;;;;;27.94;46.25;96704.22;4242742;27;5965;-74
2023/09/11 13:04:36;;;;;;;;;;;;;;;27.94;46.16;96705.00;4257996;27;7760;-74
2023/09/11 13:06:39;;;;;;;;;;;;;;;27.95;45.88;96701.19;4246377;27;5632;-74
2023/09/11 13:08:44;;;;;;;;;;;;;;;27.95;45.95;96697.66;4243136;27;6313;-74
2023/09/11 13:10:47;;;;;;;;;;;;;;;27.95;45.50;96703.09;4245660;27;5677;-75
2023/09/11 13:12:49;;;;;;;;;;;;;;;27.95;45.61;96697.66;4249976;27;5735;-75
2023/09/11 13:14:52;;;;;;;;;;;;;;;27.96;45.26;96701.97;4248857;27;5871;-74
2023/09/11 13:16:55;;;;;;;;;;;;;;;27.98;45.08;96695.16;4247373;27;6407;-74
2023/09/11 13:18:58;;;;;;;;;;;;;;;28.00;45.25;96703.00;4241514;27;5843;-73
2023/09/11 13:21:01;;;;;;;;;;;;;;;27.99;45.38;96693.25;4246239;27;5932;-73
2023/09/11 13:23:04;;;;;;;;;;;;;;;28.00;45.28;96694.84;4254687;27;5852;-74
2023/09/11 13:25:09;;;;;;;;;;;;;;;27.99;45.29;96690.53;4253197;27;5774;-74
2023/09/11 13:27:11;;;;;;;;;;;;;;;27.99;44.87;96687.81;4255102;27;5855;-74
2023/09/11 13:29:14;;;;;;;;;;;;;;;27.99;44.80;96690.53;4246478;27;5615;-74
2023/09/11 13:31:17;;;;;;;;;;;;;;;28.00;44.62;96686.69;4245777;27;5668;-73
2023/09/11 13:33:20;;;;;;;;;;;;;;;27.99;43.76;96683.16;4243942;27;5820;-74
2023/09/11 13:35:24;;;;;;;;;;;;;;;27.99;43.56;96676.94;4248650;27;5718;-74
2023/09/11 13:37:27;;;;;;;;;;;;;;;28.00;42.90;96682.06;4251972;27;5702;-74
2023/09/11 13:39:30;;;;;;;;;;;;;;;28.01;43.08;96666.56;4248997;27;5616;-74
2023/09/11 13:41:34;;;;;;;;;;;;;;;28.00;43.12;96665.75;4251763;27;5634;-73
2023/09/11 13:43:37;;;;;;;;;;;;;;;28.01;42.63;96661.13;4253906;27;5624;-74
2023/09/11 13:45:40;;;;;;;;;;;;;;;28.01;42.35;96651.06;4251722;27;5134;-73
2023/09/11 13:47:43;;;;;;;;;;;;;;;28.04;42.40;96655.06;4254199;27;5715;-74
2023/09/11 13:49:46;;;;;;;;;;;;;;;28.04;42.43;96655.88;4236509;27;5792;-74
2023/09/11 13:51:52;;;;;;;;;;;;;;;28.04;42.27;96660.50;4242786;27;5744;-73
2023/09/11 13:53:55;;;;;;;;;;;;;;;28.05;42.18;96646.59;4237706;27;5790;-74
2023/09/11 13:55:57;;;;;;;;;;;;;;;28.04;41.98;96647.72;4248768;27;5647;-74
2023/09/11 13:58:02;;;;;;;;;;;;;;;28.04;40.66;96650.44;4254788;27;5697;-74
2023/09/11 14:00:06;;;;;;;;;;;;;;;28.07;40.56;96647.09;4253788;27;5636;-74
2023/09/11 14:02:09;;;;;;;;;;;;;;;28.06;40.54;96647.41;4246953;27;5648;-75
2023/09/11 14:04:14;;;;;;;;;;;;;;;28.09;40.14;96642.19;4240584;27;5726;-73
2023/09/11 14:06:17;;;;;;;;;;;;;;;28.11;40.13;96650.00;4245899;27;5769;-75
2023/09/11 14:08:20;;;;;;;;;;;;;;;28.12;39.77;96648.91;4243612;27;5733;-74
2023/09/11 14:10:23;;;;;;;;;;;;;;;28.13;38.98;96639.63;4237615;27;5641;-74
2023/09/11 14:12:26;;;;;;;;;;;;;;;28.16;38.82;96644.44;4248565;27;5625;-74
2023/09/11 14:14:31;;;;;;;;;;;;;;;28.18;38.52;96634.06;4249659;27;5842;-74
2023/09/11 14:16:34;;;;;;;;;;;;;;;28.18;38.26;96636.78;4258586;27;5864;-74
2023/09/11 14:18:37;;;;;;;;;;;;;;;28.23;38.00;96633.16;4245258;27;5814;-74
2023/09/11 14:20:40;;;;;;;;;;;;;;;28.23;38.44;96625.78;4253015;27;5831;-74
2023/09/11 14:22:45;;;;;;;;;;;;;;;28.24;38.36;96629.31;4244695;27;5762;-74
2023/09/11 14:24:48;;;;;;;;;;;;;;;28.24;38.20;96626.59;4238975;27;5653;-74
2023/09/11 14:26:51;;;;;;;;;;;;;;;28.27;37.35;96632.22;4243957;27;5644;-74
2023/09/11 14:28:54;;;;;;;;;;;;;;;28.28;37.58;96622.97;4240639;27;5617;-74
2023/09/11 14:30:58;;;;;;;;;;;;;;;28.29;37.82;96624.56;4251178;27;5672;-74
2023/09/11 14:33:01;;;;;;;;;;;;;;;28.30;37.65;96626.16;4253196;27;5715;-74
2023/09/11 14:35:05;;;;;;;;;;;;;;;28.31;37.53;96621.53;4242067;27;5666;-74
2023/09/11 14:37:08;;;;;;;;;;;;;;;28.33;37.53;96624.75;4237902;27;5657;-74
2023/09/11 14:39:15;;;;;;;;;;;;;;;28.33;37.41;96620.13;4246949;27;5628;-74
2023/09/11 14:41:18;;;;;;;;;;;;;;;28.36;37.24;96615.97;4242770;27;5736;-75
2023/09/11 14:43:21;;;;;;;;;;;;;;;28.37;37.51;96614.88;4245701;27;5668;-74
2023/09/11 14:45:24;;;;;;;;;;;;;;;28.34;37.61;96605.41;4244583;27;5782;-74
2023/09/11 14:47:28;;;;;;;;;;;;;;;28.35;37.55;96609.75;4244716;27;5868;-74
2023/09/11 14:49:31;;;;;;;;;;;;;;;28.33;37.60;96601.09;4240825;27;5828;-74
2023/09/11 14:51:34;;;;;;;;;;;;;;;28.34;37.27;96600.00;4239602;27;5680;-75
2023/09/11 14:53:37;;;;;;;;;;;;;;;28.35;37.48;96596.16;4237972;27;5830;-74
2023/09/11 14:55:40;;;;;;;;;;;;;;;28.37;37.25;96593.91;4245613;27;5920;-74
2023/09/11 14:57:43;;;;;;;;;;;;;;;28.39;37.04;96588.16;4241800;27;5707;-74
2023/09/11 14:59:46;;;;;;;;;;;;;;;28.41;37.03;96596.81;4238157;27;5662;-74
2023/09/11 15:01:49;;;;;;;;;;;;;;;28.42;37.00;96590.25;4238251;27;5640;-74
2023/09/11 15:03:54;;;;;;;;;;;;;;;28.40;37.03;96589.75;4233224;27;5775;-73
2023/09/11 15:05:57;;;;;;;;;;;;;;;28.40;37.21;96601.44;4243081;27;5795;-74
2023/09/11 15:08:00;;;;;;;;;;;;;;;28.40;37.43;96592.47;4244144;27;5859;-74
2023/09/11 15:10:04;;;;;;;;;;;;;;;28.39;37.57;96588.16;4252361;27;5632;-75
2023/09/11 15:12:08;;;;;;;;;;;;;;;28.41;37.24;96578.56;4249296;27;5701;-75
2023/09/11 15:14:11;;;;;;;;;;;;;;;28.41;37.36;96586.72;4248737;27;5697;-74
2023/09/11 15:16:13;;;;;;;;;;;;;;;28.41;37.40;96584.00;4242359;27;5779;-75
2023/09/11 15:18:16;;;;;;;;;;;;;;;28.39;37.12;96572.66;4251635;27;5628;-74
2023/09/11 15:20:21;;;;;;;;;;;;;;;28.41;36.94;96578.56;4245866;27;5632;-73
2023/09/11 15:22:25;;;;;;;;;;;;;;;28.44;37.03;96581.81;4247538;27;5712;-74
2023/09/11 15:24:31;;;;;;;;;;;;;;;28.43;36.90;96581.00;4248922;27;5722;-74
2023/09/11 15:26:35;;;;;;;;;;;;;;;28.45;36.73;96576.06;4247020;27;5643;-74
2023/09/11 15:28:38;;;;;;;;;;;;;;;28.45;36.61;96573.34;4250272;27;6309;-75
2023/09/11 15:30:41;;;;;;;;;;;;;;;28.46;36.62;96574.94;4251313;27;5741;-74
2023/09/11 15:32:44;;;;;;;;;;;;;;;28.45;36.79;96581.50;4238846;27;5831;-74
2023/09/11 15:34:48;;;;;;;;;;;;;;;28.46;36.95;96563.25;4236915;27;6344;-72
2023/09/11 15:36:54;;;;;;;;;;;;;;;28.45;37.01;96567.09;4247945;27;5669;-70
2023/09/11 15:38:56;;;;;;;;;;;;;;;28.42;36.65;96568.50;4249577;27;5724;-75
2023/09/11 15:41:02;;;;;;;;;;;;;;;28.45;36.08;96561.66;4258621;27;5730;-76
2023/09/11 15:43:05;;;;;;;;;;;;;;;28.47;35.80;96551.25;4252223;27;5632;-77
2023/09/11 15:45:10;;;;;;;;;;;;;;;28.48;35.64;96555.59;4255715;27;5694;-76
2023/09/11 15:47:13;;;;;;;;;;;;;;;28.47;35.68;96549.34;4256333;27;5787;-76
2023/09/11 15:49:16;;;;;;;;;;;;;;;28.48;35.77;96540.06;4249962;27;5696;-75
2023/09/11 15:51:19;;;;;;;;;;;;;;;28.49;35.67;96546.31;4252150;27;5649;-76
2023/09/11 15:53:23;;;;;;;;;;;;;;;28.48;35.93;96531.91;4252749;27;5804;-77
2023/09/11 15:55:26;;;;;;;;;;;;;;;28.47;36.11;96543.91;4246191;27;5594;-77
2023/09/11 15:57:29;;;;;;;;;;;;;;;28.47;36.24;96532.22;4252409;27;5723;-78
2023/09/11 15:59:32;;;;;;;;;;;;;;;28.46;36.19;96542.31;4252220;27;6463;-77
2023/09/11 16:01:35;;;;;;;;;;;;;;;28.46;36.03;96536.88;4250744;27;5727;-76
2023/09/11 16:03:38;;;;;;;;;;;;;;;28.48;36.11;96531.13;4246574;27;5632;-76